Time;durP1;ratioP1;P1;durP2;ratioP2;P2;SDS_P1;SDS_P2;PMS_P1;PMS_P2;Temp;Humidity;BMP_temperature;BMP_pressure;BME280_temperature;BME280_humidity;BME280_pressure;Samples;Min_cycle;Max_cycle;Signal;HPM_P1;HPM_P2
2024/02/14 00:00:09;;;;;;;3.95;1.70;;;22.80;43.10;;;;;;5092142;28;20224;-53
2024/02/14 00:02:36;;;;;;;3.17;1.60;;;22.80;43.20;;;;;;5092719;28;20295;-53
2024/02/14 00:05:04;;;;;;;7.32;2.00;;;22.80;43.20;;;;;;5092450;28;20214;-56
2024/02/14 00:07:31;;;;;;;5.15;1.95;;;22.80;43.20;;;;;;5092075;28;20715;-56
2024/02/14 00:09:58;;;;;;;6.25;2.00;;;22.80;43.30;;;;;;5092626;28;20300;-56
2024/02/14 00:12:25;;;;;;;4.60;1.90;;;22.80;43.30;;;;;;5092839;28;20273;-53
2024/02/14 00:14:52;;;;;;;5.07;1.70;;;22.80;43.30;;;;;;5092048;28;20225;-56
2024/02/14 00:17:21;;;;;;;5.65;1.75;;;22.80;43.40;;;;;;5092067;28;20273;-53
2024/02/14 00:19:48;;;;;;;3.63;1.20;;;22.80;43.40;;;;;;5092309;28;20190;-53
2024/02/14 00:22:16;;;;;;;8.93;1.88;;;22.80;43.40;;;;;;5092103;28;20637;-53
2024/02/14 00:24:43;;;;;;;5.80;1.88;;;22.80;43.50;;;;;;5092118;28;20197;-57
2024/02/14 00:27:10;;;;;;;6.55;2.00;;;22.80;43.40;;;;;;5092596;28;20186;-55
2024/02/14 00:29:37;;;;;;;7.35;1.90;;;22.90;43.30;;;;;;5091727;28;20234;-54
2024/02/14 00:32:04;;;;;;;6.05;2.17;;;22.90;43.90;;;;;;5092448;28;20609;-56
2024/02/14 00:34:32;;;;;;;3.90;1.52;;;22.90;43.20;;;;;;5092315;28;20186;-55
2024/02/14 00:36:59;;;;;;;4.95;1.80;;;22.90;43.80;;;;;;5092049;28;20297;-56
2024/02/14 00:39:26;;;;;;;6.40;2.08;;;23.00;43.20;;;;;;5092358;28;20194;-56
2024/02/14 00:41:54;;;;;;;5.13;1.73;;;23.00;43.10;;;;;;5092355;28;20217;-56
2024/02/14 00:44:21;;;;;;;5.55;1.80;;;23.00;43.10;;;;;;5092130;28;20186;-55
2024/02/14 00:46:49;;;;;;;4.30;1.50;;;23.00;43.00;;;;;;5092290;28;20305;-58
2024/02/14 00:49:16;;;;;;;5.18;1.48;;;23.10;43.00;;;;;;5091788;28;20602;-54
2024/02/14 00:51:44;;;;;;;4.20;1.40;;;23.00;42.90;;;;;;5091643;28;20703;-54
2024/02/14 00:54:11;;;;;;;5.75;2.00;;;23.00;42.90;;;;;;5092074;28;20277;-55
2024/02/14 00:56:37;;;;;;;6.97;1.95;;;23.00;43.00;;;;;;5092042;28;20218;-56
2024/02/14 00:59:05;;;;;;;5.85;1.70;;;22.90;43.00;;;;;;5092139;28;20272;-55
2024/02/14 01:01:32;;;;;;;7.85;1.80;;;22.90;43.00;;;;;;5092113;28;20222;-54
2024/02/14 01:03:59;;;;;;;5.97;1.90;;;22.90;43.80;;;;;;5091801;28;20640;-56
2024/02/14 01:06:26;;;;;;;3.85;1.35;;;22.90;43.80;;;;;;5091847;28;20653;-56
2024/02/14 01:08:54;;;;;;;7.25;1.80;;;22.90;43.20;;;;;;5091811;28;20369;-56
2024/02/14 01:11:21;;;;;;;5.13;1.63;;;22.90;43.30;;;;;;5091654;28;20652;-56
2024/02/14 01:13:48;;;;;;;5.07;1.63;;;22.80;43.20;;;;;;5091467;28;20285;-55
2024/02/14 01:16:15;;;;;;;4.45;1.67;;;22.80;43.30;;;;;;5091709;28;20722;-55
2024/02/14 01:18:42;;;;;;;6.80;1.48;;;22.80;43.30;;;;;;5091640;28;20666;-56
2024/02/14 01:21:09;;;;;;;5.03;1.58;;;22.80;43.40;;;;;;5091811;28;20216;-57
2024/02/14 01:23:35;;;;;;;4.13;1.50;;;22.80;43.40;;;;;;5091385;28;20190;-56
2024/02/14 01:26:04;;;;;;;4.03;1.27;;;22.80;43.50;;;;;;5091740;28;20312;-53
2024/02/14 01:28:31;;;;;;;3.72;1.33;;;22.80;43.50;;;;;;5091648;28;20236;-56
2024/02/14 01:30:58;;;;;;;4.75;1.65;;;22.80;43.50;;;;;;5092573;28;20655;-55
2024/02/14 01:33:24;;;;;;;3.28;1.35;;;22.80;43.50;;;;;;5095546;28;20197;-54
2024/02/14 01:35:51;;;;;;;5.57;1.58;;;22.80;43.50;;;;;;5095324;28;20732;-57
2024/02/14 01:38:18;;;;;;;4.70;1.95;;;22.80;43.50;;;;;;5095270;28;20285;-56
2024/02/14 01:40:46;;;;;;;3.05;1.33;;;22.80;43.60;;;;;;5095192;28;20305;-55
2024/02/14 01:43:15;;;;;;;6.15;1.60;;;22.80;43.60;;;;;;5095567;28;20186;-56
2024/02/14 01:45:42;;;;;;;4.00;1.42;;;22.80;43.50;;;;;;5094876;28;20217;-56
2024/02/14 01:48:10;;;;;;;4.53;1.35;;;22.90;43.40;;;;;;5095075;28;20194;-54
2024/02/14 01:50:38;;;;;;;5.50;1.90;;;22.90;43.30;;;;;;5095204;28;20210;-56
2024/02/14 01:53:06;;;;;;;3.97;1.45;;;22.90;43.30;;;;;;5094920;28;20248;-56
2024/02/14 01:55:34;;;;;;;3.00;1.17;;;23.00;43.30;;;;;;5095116;28;20255;-55
2024/02/14 01:58:03;;;;;;;5.75;1.52;;;22.90;43.20;;;;;;5094325;28;20186;-56
2024/02/14 02:00:32;;;;;;;5.63;1.40;;;23.00;43.30;;;;;;5094568;28;20217;-56
2024/02/14 02:02:59;;;;;;;4.45;1.60;;;23.00;43.20;;;;;;5094934;28;20188;-56
2024/02/14 02:05:26;;;;;;;4.60;1.50;;;23.00;43.30;;;;;;5094950;28;20210;-56
2024/02/14 02:07:54;;;;;;;6.10;1.63;;;23.00;43.20;;;;;;5094658;28;20198;-56
2024/02/14 02:10:22;;;;;;;4.00;1.10;;;22.90;43.20;;;;;;5094697;28;20253;-56
2024/02/14 02:12:50;;;;;;;3.00;1.25;;;22.90;43.20;;;;;;5094979;28;20234;-57
2024/02/14 02:15:17;;;;;;;5.05;1.23;;;22.90;43.30;;;;;;5094505;28;20218;-55
2024/02/14 02:17:52;;;;;;;5.68;1.40;;;22.90;43.40;;;;;;5094503;28;20273;-54
2024/02/14 02:20:19;;;;;;;4.57;1.25;;;22.90;43.50;;;;;;5094712;28;20221;-54
2024/02/14 02:22:48;;;;;;;4.13;1.52;;;22.90;43.50;;;;;;5094272;28;20186;-55
2024/02/14 02:25:15;;;;;;;5.13;1.50;;;22.80;43.50;;;;;;5094471;28;20764;-55
2024/02/14 02:27:42;;;;;;;4.25;1.33;;;22.80;43.50;;;;;;5094410;28;20315;-54
2024/02/14 02:30:10;;;;;;;4.63;1.48;;;22.80;43.50;;;;;;5093604;28;20229;-55
2024/02/14 02:32:37;;;;;;;7.47;1.60;;;22.80;43.60;;;;;;5094728;28;20198;-55
2024/02/14 02:35:05;;;;;;;4.15;1.25;;;22.80;43.60;;;;;;5094275;28;20182;-54
2024/02/14 02:37:32;;;;;;;3.88;1.40;;;22.80;43.70;;;;;;5094144;28;20572;-53
2024/02/14 02:40:00;;;;;;;3.63;1.40;;;22.80;43.60;;;;;;5094091;28;20285;-52
2024/02/14 02:42:29;;;;;;;2.72;0.90;;;22.80;43.70;;;;;;5091160;28;20200;-57
2024/02/14 02:44:55;;;;;;;3.75;1.25;;;22.80;43.70;;;;;;5082626;28;20199;-54
2024/02/14 02:47:22;;;;;;;3.60;1.20;;;22.80;43.70;;;;;;5073710;28;20183;-54
2024/02/14 02:49:49;;;;;;;4.32;1.35;;;22.80;43.70;;;;;;5074427;28;20214;-56
2024/02/14 02:52:16;;;;;;;4.95;1.40;;;22.80;43.70;;;;;;5094087;28;20587;-56
2024/02/14 02:54:43;;;;;;;3.67;1.27;;;22.80;43.70;;;;;;5094206;28;20290;-55
2024/02/14 02:57:12;;;;;;;3.28;1.50;;;22.80;43.70;;;;;;5093676;28;20213;-55
2024/02/14 02:59:42;;;;;;;2.70;1.10;;;22.80;43.70;;;;;;5093640;28;20190;-55
2024/02/14 03:02:11;;;;;;;3.30;1.25;;;22.90;43.70;;;;;;5093424;28;20263;-56
2024/02/14 03:04:38;;;;;;;4.18;1.33;;;22.90;43.70;;;;;;5093751;28;20189;-56
2024/02/14 03:07:08;;;;;;;2.17;1.20;;;22.90;43.70;;;;;;5093450;28;20214;-55
2024/02/14 03:09:35;;;;;;;2.28;1.08;;;22.90;43.60;;;;;;5093617;28;20217;-57
2024/02/14 03:12:02;;;;;;;6.55;1.17;;;23.00;43.70;;;;;;5093594;28;20653;-56
2024/02/14 03:14:32;;;;;;;2.13;1.02;;;23.00;43.60;;;;;;5093284;28;20648;-57
2024/02/14 03:17:01;;;;;;;3.15;1.17;;;23.00;43.50;;;;;;5093278;28;20232;-55
2024/02/14 03:19:28;;;;;;;5.05;1.48;;;23.00;43.50;;;;;;5093435;28;20201;-56
2024/02/14 03:21:55;;;;;;;2.58;1.25;;;23.00;43.50;;;;;;5093148;28;20217;-57
2024/02/14 03:24:22;;;;;;;3.75;1.10;;;23.00;43.50;;;;;;5093671;28;20217;-54
2024/02/14 03:26:51;;;;;;;2.88;1.10;;;22.90;43.50;;;;;;5093245;28;20300;-55
2024/02/14 03:29:18;;;;;;;2.60;1.13;;;22.90;43.60;;;;;;5093012;28;20248;-56
2024/02/14 03:31:47;;;;;;;3.55;1.45;;;22.90;43.70;;;;;;5093407;28;20218;-56
2024/02/14 03:34:13;;;;;;;2.50;1.25;;;22.90;43.70;;;;;;5093122;28;20272;-54
2024/02/14 03:36:40;;;;;;;1.73;0.82;;;22.80;43.70;;;;;;5092705;28;20695;-55
2024/02/14 03:39:08;;;;;;;2.50;1.05;;;22.80;43.70;;;;;;5093077;28;20624;-55
2024/02/14 03:41:35;;;;;;;2.30;1.20;;;22.80;43.70;;;;;;5092798;28;20275;-54
2024/02/14 03:44:03;;;;;;;3.70;1.10;;;22.80;43.70;;;;;;5093054;28;20266;-54
2024/02/14 03:46:30;;;;;;;2.83;1.00;;;22.80;43.70;;;;;;5092911;28;20220;-56
2024/02/14 03:48:58;;;;;;;2.38;0.82;;;22.80;43.70;;;;;;5092577;28;20225;-56
2024/02/14 03:51:25;;;;;;;2.35;1.00;;;22.90;43.70;;;;;;5092608;28;20313;-56
2024/02/14 03:53:52;;;;;;;2.35;1.00;;;22.80;43.70;;;;;;5092283;28;20638;-56
2024/02/14 03:56:19;;;;;;;3.00;1.00;;;22.80;43.70;;;;;;5092543;28;20304;-54
2024/02/14 03:58:46;;;;;;;5.15;1.15;;;22.80;43.70;;;;;;5093019;28;20182;-56
2024/02/14 04:01:14;;;;;;;2.15;0.85;;;22.80;43.80;;;;;;5092458;28;20723;-54
2024/02/14 04:03:41;;;;;;;1.77;1.00;;;22.80;43.90;;;;;;5093054;28;20197;-57
2024/02/14 04:06:10;;;;;;;1.75;0.80;;;22.80;43.80;;;;;;5092321;28;20236;-56
2024/02/14 04:08:37;;;;;;;2.05;0.80;;;22.80;43.90;;;;;;5092718;28;20277;-56
2024/02/14 04:11:03;;;;;;;2.78;1.10;;;22.80;43.90;;;;;;5092657;28;20232;-56
2024/02/14 04:13:30;;;;;;;3.33;1.00;;;22.80;44.00;;;;;;5092440;28;20277;-55
2024/02/14 04:15:57;;;;;;;1.33;0.80;;;22.80;43.90;;;;;;5092623;28;20210;-54
2024/02/14 04:18:24;;;;;;;2.60;1.20;;;22.80;43.70;;;;;;5092116;28;20743;-56
2024/02/14 04:20:51;;;;;;;2.17;0.90;;;22.90;43.70;;;;;;5091909;28;20725;-56
2024/02/14 04:23:19;;;;;;;2.15;0.90;;;22.90;43.70;;;;;;5092328;28;20618;-54
2024/02/14 04:25:46;;;;;;;1.60;0.93;;;22.90;43.70;;;;;;5092093;28;20225;-55
2024/02/14 04:28:13;;;;;;;1.48;0.80;;;23.00;43.80;;;;;;5092112;28;20225;-56
2024/02/14 04:30:41;;;;;;;2.75;1.00;;;23.00;43.80;;;;;;5092499;28;20253;-55
2024/02/14 04:33:09;;;;;;;1.02;0.68;;;23.00;43.80;;;;;;5092381;28;20194;-56
2024/02/14 04:35:36;;;;;;;4.70;1.02;;;23.00;43.80;;;;;;5092224;28;20217;-55
2024/02/14 04:38:03;;;;;;;2.60;0.82;;;23.00;43.90;;;;;;5092270;28;20274;-56
2024/02/14 04:40:31;;;;;;;3.08;1.10;;;23.00;43.80;;;;;;5091951;28;20594;-52
2024/02/14 04:42:58;;;;;;;2.03;0.70;;;22.90;43.70;;;;;;5092051;28;20283;-57
2024/02/14 04:45:26;;;;;;;1.55;0.75;;;22.90;43.70;;;;;;5092301;28;20291;-55
2024/02/14 04:47:53;;;;;;;1.92;0.70;;;22.90;43.70;;;;;;5091910;28;20682;-56
2024/02/14 04:50:20;;;;;;;3.58;0.82;;;22.90;43.80;;;;;;5091542;28;20210;-56
2024/02/14 04:52:46;;;;;;;2.08;0.75;;;22.90;43.90;;;;;;5092390;28;20288;-56
2024/02/14 04:55:13;;;;;;;1.60;0.90;;;22.80;43.80;;;;;;5092186;28;20221;-54
2024/02/14 04:57:42;;;;;;;2.58;0.85;;;22.80;43.90;;;;;;5091787;28;20190;-54
2024/02/14 05:00:10;;;;;;;2.70;0.75;;;22.80;43.90;;;;;;5092121;28;20277;-55
2024/02/14 05:02:37;;;;;;;3.45;1.02;;;22.80;44.00;;;;;;5091848;28;20277;-54
2024/02/14 05:05:04;;;;;;;3.03;0.93;;;22.80;44.00;;;;;;5091886;28;20201;-54
2024/02/14 05:07:31;;;;;;;1.67;0.77;;;22.80;44.00;;;;;;5095661;28;20186;-56
2024/02/14 05:09:58;;;;;;;2.42;0.77;;;22.80;44.00;;;;;;5095447;28;20308;-56
2024/02/14 05:12:25;;;;;;;2.38;0.88;;;22.80;44.10;;;;;;5095750;28;20216;-55
2024/02/14 05:14:53;;;;;;;2.83;0.80;;;22.80;44.20;;;;;;5095917;28;20277;-55
2024/02/14 05:17:20;;;;;;;2.40;0.90;;;22.80;44.20;;;;;;5095723;28;20302;-55
2024/02/14 05:19:47;;;;;;;3.00;1.05;;;22.80;44.30;;;;;;5095614;28;20614;-52
2024/02/14 05:22:14;;;;;;;2.80;0.80;;;22.80;44.30;;;;;;5095210;28;20228;-53
2024/02/14 05:24:40;;;;;;;1.13;0.70;;;22.80;44.30;;;;;;5095416;28;20196;-56
2024/02/14 05:27:08;;;;;;;1.70;0.80;;;22.70;44.30;;;;;;5095387;28;20304;-55
2024/02/14 05:29:35;;;;;;;2.10;0.90;;;22.80;44.30;;;;;;5095867;28;20261;-56
2024/02/14 05:32:03;;;;;;;2.03;0.82;;;22.80;44.20;;;;;;5095958;28;20213;-56
2024/02/14 05:34:30;;;;;;;2.72;0.85;;;22.90;44.20;;;;;;5095178;28;20277;-56
2024/02/14 05:36:56;;;;;;;3.47;0.90;;;22.90;44.20;;;;;;5095777;28;20214;-56
2024/02/14 05:39:23;;;;;;;3.03;0.77;;;22.90;44.10;;;;;;5095310;28;20640;-51
2024/02/14 05:41:51;;;;;;;3.38;0.75;;;22.90;44.10;;;;;;5094960;28;20218;-56
2024/02/14 05:44:17;;;;;;;2.20;0.80;;;22.90;44.00;;;;;;5095479;28;20217;-52
2024/02/14 05:46:45;;;;;;;3.30;1.00;;;23.00;44.00;;;;;;5095180;28;20220;-52
2024/02/14 05:49:13;;;;;;;2.80;0.85;;;23.00;43.90;;;;;;5094947;28;20562;-55
2024/02/14 05:51:40;;;;;;;2.42;0.77;;;23.00;43.90;;;;;;5095219;28;20306;-54
2024/02/14 05:54:07;;;;;;;2.05;0.70;;;23.00;43.90;;;;;;5095200;28;20182;-55
2024/02/14 05:56:34;;;;;;;2.65;0.80;;;23.00;44.00;;;;;;5094839;28;20660;-55
2024/02/14 05:59:01;;;;;;;2.47;0.85;;;22.90;44.00;;;;;;5094993;28;20221;-55
2024/02/14 06:01:28;;;;;;;3.70;0.80;;;22.90;44.00;;;;;;5094293;28;20666;-54
2024/02/14 06:03:55;;;;;;;2.90;0.77;;;22.90;44.10;;;;;;5094717;28;20255;-56
2024/02/14 06:06:24;;;;;;;2.70;0.80;;;22.90;44.10;;;;;;5095067;28;20301;-55
2024/02/14 06:08:51;;;;;;;2.75;0.60;;;22.80;44.10;;;;;;5095146;28;20189;-56
2024/02/14 06:11:20;;;;;;;2.10;0.70;;;22.80;44.10;;;;;;5094697;28;20232;-50
2024/02/14 06:13:47;;;;;;;2.25;0.80;;;22.80;44.20;;;;;;5094648;28;20194;-55
2024/02/14 06:16:14;;;;;;;3.33;0.90;;;22.80;44.20;;;;;;5094672;28;20301;-56
2024/02/14 06:18:42;;;;;;;1.88;0.93;;;22.80;44.30;;;;;;5094307;28;20277;-56
2024/02/14 06:21:09;;;;;;;2.83;0.80;;;22.80;44.30;;;;;;5094472;28;20241;-54
2024/02/14 06:23:38;;;;;;;3.63;1.00;;;22.80;44.40;;;;;;5094778;28;20187;-53
2024/02/14 06:26:06;;;;;;;2.28;0.80;;;22.80;44.40;;;;;;5093849;28;20770;-55
2024/02/14 06:28:32;;;;;;;1.20;0.68;;;22.80;44.50;;;;;;5094170;28;20237;-56
2024/02/14 06:31:00;;;;;;;2.10;0.98;;;22.70;44.50;;;;;;5094622;28;20257;-55
2024/02/14 06:33:27;;;;;;;4.70;0.90;;;22.70;44.50;;;;;;5094190;28;20186;-56
2024/02/14 06:35:54;;;;;;;1.88;0.80;;;22.70;44.50;;;;;;5094153;28;20764;-55
2024/02/14 06:38:20;;;;;;;1.42;0.77;;;22.70;44.50;;;;;;5093799;28;20660;-56
2024/02/14 06:40:49;;;;;;;3.38;0.93;;;22.70;44.50;;;;;;5094000;28;20248;-55
2024/02/14 06:43:16;;;;;;;2.65;0.85;;;22.70;44.50;;;;;;5093758;28;20640;-54
2024/02/14 06:45:43;;;;;;;2.88;0.80;;;22.80;44.60;;;;;;5093732;28;20772;-55
2024/02/14 06:48:10;;;;;;;0.85;0.45;;;22.80;44.50;;;;;;5094071;28;20186;-54
2024/02/14 06:50:37;;;;;;;2.40;0.80;;;22.90;44.50;;;;;;5093923;28;20240;-56
2024/02/14 06:53:04;;;;;;;1.98;0.73;;;22.90;45.10;;;;;;5093713;28;20186;-54
2024/02/14 06:55:31;;;;;;;4.00;1.10;;;22.90;44.40;;;;;;5093682;28;20284;-51
2024/02/14 06:58:00;;;;;;;3.08;1.00;;;22.90;45.00;;;;;;5093895;28;20197;-56
2024/02/14 07:00:28;;;;;;;2.13;1.00;;;22.90;44.30;;;;;;5093838;28;20188;-55
2024/02/14 07:02:55;;;;;;;2.10;0.90;;;22.90;44.30;;;;;;5093446;28;20186;-54
2024/02/14 07:05:21;;;;;;;1.50;0.80;;;23.00;44.30;;;;;;5093429;28;20277;-54
2024/02/14 07:07:49;;;;;;;3.63;1.20;;;23.00;44.30;;;;;;5093710;28;20280;-56
2024/02/14 07:10:17;;;;;;;2.67;0.88;;;23.00;44.30;;;;;;5093307;28;20221;-56
2024/02/14 07:12:43;;;;;;;3.55;1.10;;;23.00;44.30;;;;;;5093676;28;20616;-56
2024/02/14 07:15:12;;;;;;;2.30;0.98;;;22.90;44.30;;;;;;5093333;28;20762;-55
2024/02/14 07:17:39;;;;;;;2.65;0.80;;;22.90;44.40;;;;;;5093255;28;20224;-56
2024/02/14 07:20:08;;;;;;;2.03;0.70;;;22.90;44.40;;;;;;5093118;28;20652;-57
2024/02/14 07:22:35;;;;;;;3.10;1.00;;;22.90;44.50;;;;;;5092954;28;20218;-56
2024/02/14 07:25:04;;;;;;;1.73;0.90;;;22.80;44.40;;;;;;5093187;28;20235;-53
2024/02/14 07:27:31;;;;;;;2.47;1.00;;;22.80;44.50;;;;;;5093211;28;20224;-52
2024/02/14 07:29:58;;;;;;;1.92;0.82;;;22.80;44.50;;;;;;5092507;28;20259;-56
2024/02/14 07:32:27;;;;;;;2.25;1.00;;;22.80;44.60;;;;;;5093228;28;20321;-55
2024/02/14 07:34:54;;;;;;;1.77;0.90;;;22.80;44.60;;;;;;5086724;28;20225;-56
2024/02/14 07:37:21;;;;;;;3.17;1.00;;;22.80;44.60;;;;;;5081811;28;20231;-57
2024/02/14 07:39:48;;;;;;;3.85;1.17;;;22.80;44.70;;;;;;5082373;28;20190;-56
2024/02/14 07:42:15;;;;;;;3.70;0.80;;;22.80;44.70;;;;;;5092481;28;20590;-56
2024/02/14 07:44:42;;;;;;;2.28;0.90;;;22.80;44.80;;;;;;5092619;28;20186;-56
2024/02/14 07:47:09;;;;;;;2.33;0.80;;;22.80;44.80;;;;;;5092490;28;20301;-57
2024/02/14 07:49:37;;;;;;;2.63;0.90;;;22.70;44.80;;;;;;5075167;28;20195;-56
2024/02/14 07:52:05;;;;;;;1.92;0.90;;;22.70;44.80;;;;;;5070390;28;20237;-55
2024/02/14 07:54:32;;;;;;;2.97;1.15;;;22.80;44.90;;;;;;5075075;28;20259;-57
2024/02/14 07:56:59;;;;;;;4.13;1.08;;;22.80;44.90;;;;;;5071350;28;20594;-58
2024/02/14 07:59:26;;;;;;;3.97;1.10;;;22.80;44.90;;;;;;5075628;28;20279;-57
2024/02/14 08:01:54;;;;;;;5.95;0.98;;;22.90;44.90;;;;;;5081220;28;20715;-57
2024/02/14 08:04:22;;;;;;;5.30;1.05;;;22.90;44.80;;;;;;5053313;28;20680;-57
2024/02/14 08:06:51;;;;;;;2.53;1.30;;;23.00;44.80;;;;;;5063084;28;20303;-56
2024/02/14 08:09:22;;;;;;;2.78;1.00;;;23.10;44.90;;;;;;5084548;28;20225;-56
2024/02/14 08:11:52;;;;;;;3.25;1.13;;;23.10;44.80;;;;;;5086891;28;20241;-56
2024/02/14 08:14:22;;;;;;;2.20;0.80;;;23.10;44.80;;;;;;5087258;28;20221;-56
2024/02/14 08:16:51;;;;;;;3.80;1.00;;;23.10;44.70;;;;;;5053831;28;20639;-56
2024/02/14 08:19:22;;;;;;;4.60;1.00;;;23.20;44.70;;;;;;5088723;28;20284;-55
2024/02/14 08:21:58;;;;;;;4.45;1.20;;;23.20;44.70;;;;;;5068418;28;20222;-54
2024/02/14 08:24:36;;;;;;;5.53;1.10;;;23.20;44.70;;;;;;5075382;28;20282;-55
2024/02/14 08:27:08;;;;;;;5.82;1.30;;;23.20;44.80;;;;;;5020253;28;20228;-58
2024/02/14 08:29:36;;;;;;;2.90;0.85;;;23.10;45.10;;;;;;5074826;28;20275;-56
2024/02/14 08:32:09;;;;;;;5.40;1.45;;;23.10;45.40;;;;;;5045650;28;20309;-54
2024/02/14 08:37:21;;;;;;;4.82;1.20;;;23.10;45.80;;;;;;5062572;28;20213;-55
2024/02/14 08:39:52;;;;;;;8.43;1.30;;;23.00;45.90;;;;;;5088313;28;20543;-57
2024/02/14 08:42:25;;;;;;;4.00;1.05;;;23.00;46.10;;;;;;5091167;28;20217;-56
2024/02/14 08:48:03;;;;;;;10.77;1.48;;;23.00;46.70;;;;;;5086018;28;20222;-56
2024/02/14 08:50:35;;;;;;;5.97;1.13;;;22.90;46.70;;;;;;5089030;28;20297;-56
2024/02/14 08:53:11;;;;;;;5.47;1.15;;;22.90;46.60;;;;;;5035760;28;20251;-56
2024/02/14 08:55:50;;;;;;;5.82;1.40;;;23.00;46.70;;;;;;5087020;28;20213;-65
2024/02/14 08:58:21;;;;;;;6.07;1.20;;;23.10;47.00;;;;;;5021315;28;20205;-62
2024/02/14 09:00:52;;;;;;;7.28;1.00;;;23.10;46.90;;;;;;5051041;28;20206;-61
2024/02/14 09:06:13;;;;;;;5.00;0.88;;;23.20;47.00;;;;;;5060007;28;20593;-56
2024/02/14 09:08:48;;;;;;;7.78;1.45;;;23.10;46.80;;;;;;5051766;28;20211;-64
2024/02/14 09:11:26;;;;;;;4.10;1.20;;;23.20;46.90;;;;;;5069475;28;20759;-64
2024/02/14 09:13:55;;;;;;;4.97;1.00;;;23.20;47.00;;;;;;5061575;28;20234;-61
2024/02/14 09:16:26;;;;;;;4.97;1.02;;;23.20;47.00;;;;;;5052274;28;20221;-63
2024/02/14 09:18:54;;;;;;;4.90;1.00;;;23.20;47.00;;;;;;5087535;28;20197;-62
2024/02/14 09:21:27;;;;;;;4.72;1.10;;;23.30;47.20;;;;;;5056125;28;20229;-63
2024/02/14 09:26:49;;;;;;;9.52;1.48;;;23.30;47.30;;;;;;5065781;28;20224;-61
2024/02/14 09:29:17;;;;;;;4.97;1.20;;;23.30;47.10;;;;;;5052747;28;20232;-64
2024/02/14 09:31:47;;;;;;;8.05;1.25;;;23.30;47.10;;;;;;5085215;28;20222;-64
2024/02/14 09:37:01;;;;;;;6.15;1.25;;;23.30;47.00;;;;;;5087111;28;20703;-62
2024/02/14 09:39:38;;;;;;;9.25;1.40;;;23.40;47.20;;;;;;5089189;28;20266;-62
2024/02/14 09:42:13;;;;;;;6.97;1.35;;;23.40;47.30;;;;;;5069170;28;20237;-61
2024/02/14 09:44:48;;;;;;;7.55;1.50;;;23.40;47.30;;;;;;5087227;28;20205;-60
2024/02/14 09:47:20;;;;;;;5.75;1.10;;;23.40;47.30;;;;;;5065554;28;20307;-61
2024/02/14 09:49:51;;;;;;;6.28;1.40;;;23.40;47.20;;;;;;5047124;28;20194;-64
2024/02/14 09:52:24;;;;;;;8.07;1.30;;;23.40;47.20;;;;;;5081013;28;20226;-63
2024/02/14 09:55:04;;;;;;;11.25;1.17;;;23.40;47.20;;;;;;5047297;28;20816;-62
2024/02/14 09:57:35;;;;;;;3.83;1.27;;;23.40;47.20;;;;;;5030764;28;20746;-60
2024/02/14 10:00:18;;;;;;;4.57;1.20;;;23.40;47.10;;;;;;5085304;28;20243;-63
2024/02/14 10:03:07;;;;;;;11.52;1.73;;;23.40;47.20;;;;;;5083837;28;20218;-63
2024/02/14 10:05:38;;;;;;;6.70;1.02;;;23.40;47.40;;;;;;5011351;28;20282;-63
2024/02/14 10:08:09;;;;;;;9.23;1.58;;;23.40;47.30;;;;;;5027232;28;20212;-62
2024/02/14 10:10:51;;;;;;;7.88;1.40;;;23.40;47.30;;;;;;5021911;28;20218;-63
2024/02/14 10:13:35;;;;;;;6.78;1.70;;;23.40;47.40;;;;;;5039846;28;20203;-65
2024/02/14 10:16:14;;;;;;;7.75;1.10;;;23.40;47.30;;;;;;5000893;28;20283;-66
2024/02/14 10:19:00;;;;;;;6.72;1.35;;;23.40;47.30;;;;;;5005778;28;20199;-62
2024/02/14 10:21:31;;;;;;;6.45;1.15;;;23.40;47.30;;;;;;5014952;28;20350;-63
2024/02/14 10:24:04;;;;;;;5.93;1.15;;;23.40;47.30;;;;;;5046690;28;20295;-64
2024/02/14 10:26:38;;;;;;;15.27;1.73;;;23.40;47.30;;;;;;5025002;28;20209;-62
2024/02/14 10:31:51;;;;;;;7.93;1.48;;;23.40;47.30;;;;;;5041472;28;20217;-60
2024/02/14 10:34:31;;;;;;;6.10;1.42;;;23.40;47.30;;;;;;5089276;28;20217;-60
2024/02/14 10:36:59;;;;;;;3.83;1.08;;;23.40;47.20;;;;;;5088832;28;20699;-60
2024/02/14 10:39:31;;;;;;;5.75;1.42;;;23.40;47.20;;;;;;5053529;28;20201;-59
2024/02/14 10:42:03;;;;;;;9.15;1.40;;;23.40;47.20;;;;;;5083482;28;20718;-61
2024/02/14 10:44:31;;;;;;;5.40;1.17;;;23.40;47.10;;;;;;5056135;28;20198;-61
2024/02/14 10:47:03;;;;;;;9.63;1.25;;;23.40;47.10;;;;;;5068776;28;20247;-63
2024/02/14 10:49:33;;;;;;;6.35;1.52;;;23.40;47.10;;;;;;5085919;28;20200;-62
2024/02/14 10:55:00;;;;;;;5.28;1.52;;;23.30;47.10;;;;;;5053043;28;20206;-64
2024/02/14 10:57:32;;;;;;;6.00;1.70;;;23.30;47.10;;;;;;5042711;28;20215;-62
2024/02/14 11:00:03;;;;;;;5.03;1.42;;;23.30;47.10;;;;;;5041626;28;20259;-62
2024/02/14 11:02:33;;;;;;;3.97;1.38;;;23.30;47.10;;;;;;5050824;28;20273;-63
2024/02/14 11:05:03;;;;;;;6.25;1.52;;;23.30;47.00;;;;;;5054291;28;20191;-64
2024/02/14 11:07:33;;;;;;;6.93;1.42;;;23.30;47.00;;;;;;5011620;28;20302;-66
2024/02/14 11:10:07;;;;;;;6.95;1.58;;;23.30;47.00;;;;;;5058980;28;20999;-66
2024/02/14 11:12:38;;;;;;;5.13;1.10;;;23.30;47.00;;;;;;5065771;28;20626;-66
2024/02/14 11:15:13;;;;;;;9.48;1.55;;;23.30;46.90;;;;;;5088096;28;20656;-66
2024/02/14 11:17:44;;;;;;;6.60;1.30;;;23.30;47.00;;;;;;5088340;28;20290;-67
2024/02/14 11:20:19;;;;;;;5.03;1.27;;;23.30;47.00;;;;;;5089567;28;20198;-66
2024/02/14 11:22:57;;;;;;;3.95;1.55;;;23.30;47.00;;;;;;5087764;28;20217;-66
2024/02/14 11:25:31;;;;;;;5.07;1.60;;;23.20;46.80;;;;;;5087779;28;20243;-67
2024/02/14 11:27:59;;;;;;;4.53;1.38;;;23.20;46.80;;;;;;5052344;28;20243;-66
2024/02/14 11:30:35;;;;;;;8.25;1.50;;;23.20;46.70;;;;;;5090044;28;20205;-66
2024/02/14 11:33:15;;;;;;;4.43;1.55;;;23.20;46.80;;;;;;5086953;28;20229;-66
2024/02/14 11:35:42;;;;;;;4.95;1.35;;;23.20;46.70;;;;;;5086698;28;20197;-66
2024/02/14 11:38:10;;;;;;;5.40;1.45;;;23.20;46.70;;;;;;5088902;28;20253;-66
2024/02/14 11:40:38;;;;;;;4.53;1.45;;;23.20;46.70;;;;;;5089332;28;20185;-64
2024/02/14 11:43:10;;;;;;;5.88;1.67;;;23.30;46.70;;;;;;5086003;28;20213;-66
2024/02/14 11:45:39;;;;;;;6.47;1.90;;;23.20;46.70;;;;;;5087236;28;20674;-64
2024/02/14 11:48:06;;;;;;;3.97;1.42;;;23.20;46.60;;;;;;5088323;28;20209;-64
2024/02/14 11:50:33;;;;;;;3.33;1.40;;;23.20;46.70;;;;;;5089481;28;20264;-64
2024/02/14 11:53:00;;;;;;;5.57;1.50;;;23.10;46.50;;;;;;5087603;28;20213;-64
2024/02/14 11:55:32;;;;;;;4.88;1.55;;;23.10;47.20;;;;;;5088443;28;20182;-64
2024/02/14 11:57:59;;;;;;;5.30;1.38;;;23.10;46.60;;;;;;5087265;28;20232;-63
2024/02/14 12:00:27;;;;;;;3.75;1.35;;;23.10;46.50;;;;;;5088641;28;20726;-64
2024/02/14 12:02:55;;;;;;;6.35;1.60;;;23.10;46.50;;;;;;5087781;28;20581;-64
2024/02/14 12:05:22;;;;;;;8.95;1.63;;;23.10;47.20;;;;;;5087649;28;20212;-64
2024/02/14 12:07:50;;;;;;;3.78;1.50;;;23.10;46.60;;;;;;5084878;28;20332;-64
2024/02/14 12:10:17;;;;;;;7.88;1.90;;;23.10;46.60;;;;;;5080272;28;20191;-63
2024/02/14 12:12:47;;;;;;;4.50;1.48;;;23.10;46.50;;;;;;5082689;28;20222;-63
2024/02/14 12:15:15;;;;;;;5.65;1.50;;;23.00;46.50;;;;;;5080358;28;20204;-66
2024/02/14 12:17:45;;;;;;;5.07;1.58;;;23.10;46.70;;;;;;5081411;28;20219;-67
2024/02/14 12:20:13;;;;;;;6.40;1.67;;;23.10;46.70;;;;;;5086689;28;20178;-66
2024/02/14 12:22:41;;;;;;;8.82;2.17;;;23.00;46.70;;;;;;5084024;28;20770;-66
2024/02/14 12:25:10;;;;;;;5.55;1.80;;;22.90;46.70;;;;;;5087729;28;20193;-66
2024/02/14 12:27:38;;;;;;;4.88;1.80;;;22.90;46.80;;;;;;5085024;28;20220;-67
2024/02/14 12:30:06;;;;;;;11.07;2.38;;;22.90;47.00;;;;;;5084925;28;20217;-66
2024/02/14 12:32:33;;;;;;;8.65;2.15;;;22.90;47.00;;;;;;5081554;28;20214;-67
2024/02/14 12:35:02;;;;;;;6.00;1.95;;;23.00;47.00;;;;;;5087351;28;20824;-66
2024/02/14 12:37:30;;;;;;;7.53;2.10;;;23.10;46.90;;;;;;5078951;28;20602;-64
2024/02/14 12:39:57;;;;;;;7.00;2.17;;;23.20;46.80;;;;;;5084856;28;20868;-64
2024/02/14 12:42:25;;;;;;;6.38;1.98;;;23.30;46.80;;;;;;5086145;28;20301;-64
2024/02/14 12:44:54;;;;;;;7.93;1.70;;;23.30;46.70;;;;;;5087019;28;20193;-65
2024/02/14 12:47:22;;;;;;;11.77;1.95;;;23.30;46.50;;;;;;5086317;28;20300;-65
2024/02/14 12:49:49;;;;;;;7.20;2.20;;;23.30;46.40;;;;;;5084959;28;20643;-64
2024/02/14 12:52:18;;;;;;;4.93;2.20;;;23.30;46.40;;;;;;5088632;28;20237;-64
2024/02/14 12:54:45;;;;;;;6.13;1.70;;;23.30;46.40;;;;;;5087038;28;20273;-65
2024/02/14 12:57:12;;;;;;;4.78;1.95;;;23.30;46.50;;;;;;5086673;28;20298;-65
2024/02/14 12:59:39;;;;;;;12.30;2.03;;;23.30;46.40;;;;;;5088344;28;20197;-64
2024/02/14 13:02:07;;;;;;;10.93;1.83;;;23.30;46.50;;;;;;5088703;28;20304;-64
2024/02/14 13:04:34;;;;;;;4.85;1.70;;;23.30;46.70;;;;;;5079995;28;20222;-64
2024/02/14 13:07:02;;;;;;;7.60;2.15;;;23.30;46.70;;;;;;5074655;28;20251;-65
2024/02/14 13:09:30;;;;;;;8.38;2.30;;;23.30;47.30;;;;;;5089790;28;20247;-64
2024/02/14 13:12:02;;;;;;;7.35;2.53;;;23.30;46.70;;;;;;5049452;28;20296;-64